Decoded Metar for KVBG (LOMPOC in CA, USA) (IATA:VBG) | Meteo·Mobile Aviation Weather
aviador You're here:

KVBG Decoded Metar

LOMPOC in CA, USA
Report Time2019-07-21 17:33:00
UTC Time2019-07-21 17:58:01
Flight Rules ifr IFR
Wind300° at 05 kt
W.Decomp.*RWY 30: 4.9 kt HW 1.2 kt LCW
Visibility9999 m
Phenomena:N/A
Clouds:Overcast 007 Hf
Expected CloudBase > 800 ft AGL from Temp-Dew spread
Ceiling700 ft
Temp15°C (ISA +1)
Dew Point13°C (88% RH)
AAT14.1°C
QNH1015 hPa
Density Alt587 ft
Elevation367 ft
Report Wrong Elevation
Raw Report
SPECI KVBG 211733Z AUTO 30005KT 10SM OVC007 15/13 A2997 RMK AO2 CIG
005V007 SLP151 $=

Extra information for KVBG:More info

Metar Taf Metar & Taf Last 4 Metars F.Rules Stats Wind Profile Meteogram Temp Stats Airport Information Weather charts Add Link Nearby VenuesMetar ALERT Operation Metar Decoded Social comments

AIRNAV info for KVBG